NCAR-RAP Real-Time Weather Data

Output produced by METARs form (23 June 2021  09:18 UTC)
found at http://weather.rap.ucar.edu/surface/
 
CYKY 230800Z 02006KT 330V030 15SM SCT100 BKN160 20/11 A2956 RMK AC3AC4 SLP997 DENSITY ALT 3800FT
CYKY 230700Z 32007KT 15SM BKN110 20/13 A2956 RMK AC6 PRESRR SLP997 DENSITY ALT 3800FT
CYKY 230600Z 15004KT 15SM BKN110 19/12 A2952 RMK AC5 SLP986 DENSITY ALT 3800FT
CYKY 230500Z 00000KT 15SM SCT110 21/11 A2953 RMK AC4 SLP987 DENSITY ALT 4000FT
CYKY 230400Z 32004KT 15SM FEW090 SCT160 23/11 A2953 RMK CU1AC2 SLP987 DENSITY ALT 4200FT
CYKY 230300Z 29004KT 15SM FEW160 SCT240 25/12 A2952 RMK AC1CI3 AC TR SLP987 DENSITY ALT 4500FT
CYKY 230200Z 29006KT 15SM FEW090 FEW160 SCT240 28/10 A2952 RMK CU1AC1CI3 CU TR SLP988 DENSITY ALT 4800FT
CYKY 230100Z 32009G15KT 15SM FEW090 FEW150 FEW240 29/08 A2952 RMK CU1AC1CI2 CU TR AC TR SLP989 DENSITY ALT 4900FT
CYKY 230000Z 31011G16KT 15SM FEW092 BKN260 30/08 A2952 RMK CU2CI3 SLP994 DENSITY ALT 4900FT
CYKY 222300Z 27013G23KT 15SM SCT092 BKN260 30/06 A2953 RMK CU4CI2 SLP995 DENSITY ALT 4900FT
CYKY 222200Z 27012KT 15SM BKN092 BKN260 30/07 A2954 RMK CU5CI1 SLP998 DENSITY ALT 5000FT
 
CWRJ 230800Z AUTO 25007KT 15/09 RMK AO1 SLP002 T01500092 53013
CWRJ 230700Z AUTO 31003KT 14/07 RMK AO1 SLP986 T01440070 57003
CWRJ 230600Z AUTO 26004KT 16/07 RMK AO1 SLP987 T01640074 50001
CWRJ 230500Z AUTO 24005KT 17/08 RMK AO1 SLP989 T01700082 50004
CWRJ 230400Z AUTO 24004KT 18/08 RMK AO1 SLP991 T01820075 51009
CWRJ 230300Z AUTO 31004KT 25/08 RMK AO1 SLP984 T02540080 53002
CWRJ 230200Z AUTO 33007KT 28/07 RMK AO1 PK WND 32020/0101 SLP982 T02820073 55007
CWRJ 230100Z AUTO 27011G19KT 31/05 RMK AO1 PK WND 30019/0059 SLP977 T03070048 56017
CWRJ 230000Z AUTO 25007KT 30/06 RMK AO1 SLP983 T03020063 58019
CWRJ 222300Z AUTO 27011G17KT 30/04 RMK AO1 PK WND 24018/2232 SLP992 T03010039 57017
CWRJ 222200Z AUTO 30009KT 31/03 RMK AO1 PK WND 31019/2117 SLP997 T03090034 58016